Etusivu
METAR-TAF:

METAR-TAF

Lentoasemat :

Senoun kansainvälinen lentoasema

Bamako, Mali

Leveyspiiri: 12-32N, Pituuspiiri: 007-57W, korkeus merenpinnasta: 380 m

Tämänhetkinen sää

Tämä raportti tehtiin 31 minuuttia sitten, kello 03.00 UTC
Tuuli 3 kn pohjoisesta/koillisesta
Lämpötila 24°C
Kosteus 57%
Ilmanpaine 1014 hPa
Näkyvyys 10 km tai enemmän
ei pilviä alle 1500 m:ssä eikä cumulonimbus-pilviä

METAR: GABS 210300Z 03003KT CAVOK 24/15 Q1014 NOSIG

Aika: 03:31 (03:31 UTC)

Sääennuste

Tämä raportti tehtiin 4 tuntia ja 11 minuuttia sitten, kello 23.20 UTC
Ennuste voimassa 21. päivästä klo 00 UTC - 22. päivään klo 06 UTC
Tuuli 6 kn koillisesta
Näkyvyys 10 km tai enemmän
ei pilviä alle 1500 m:ssä eikä cumulonimbus-pilviä
Todennäköisyys 40% :
Ajoittain
21. päivästä klo 06 UTC - 21. päivään klo 11 UTC
Näkyvyys: 4500 m
usvaa

TAF: GABS 202320Z 2100/2206 05006KT CAVOK PROB40 TEMPO 2106/2111 4500 HZ

Säähavainnot ja -ennusteet yli 4000 lentoasemalta (METAR- ja TAF-raportit).

Käytössä olevat sääasemat on merkitty karttaan keltaisilla ja punaisilla pisteillä.

Aseta hiiri pisteen päälle nähdäksesi sääaseman nimen.

Klikkaa sitten nähdäksesi säähavainnot ja -ennusteet.

Kartan vaihtaminen: klikkaa mustalla rastilla varustettuja vihreitä pisteitä, niin voit zoomata sisään; viivalla varustettua vihreää pistettä, niin voit zoomata ulos tai vihreitä nuolia, niin pääset viereisille kartoille.


METAR-TAF: